Time;durP1;ratioP1;P1;durP2;ratioP2;P2;SDS_P1;SDS_P2;PMS_P1;PMS_P2;Temp;Humidity;BMP_temperature;BMP_pressure;BME280_temperature;BME280_humidity;BME280_pressure;Samples;Min_cycle;Max_cycle;Signal;HPM_P1;HPM_P2
2023/08/16 00:00:25;;;;;;;7.72;5.25;;;16.20;99.90;;;;;;5083706;28;20051;-85
2023/08/16 00:02:51;;;;;;;5.97;4.53;;;16.20;99.90;;;;;;5061188;28;20069;-85
2023/08/16 00:05:16;;;;;;;5.80;3.95;;;16.30;99.90;;;;;;5059342;28;20025;-85
2023/08/16 00:07:42;;;;;;;4.75;3.95;;;16.40;99.90;;;;;;5077043;28;20046;-86
2023/08/16 00:10:11;;;;;;;6.35;4.00;;;16.50;99.90;;;;;;5062687;28;20040;-85
2023/08/16 00:12:37;;;;;;;4.97;3.58;;;16.60;99.90;;;;;;5064284;28;20031;-86
2023/08/16 00:15:04;;;;;;;7.57;4.10;;;16.60;99.90;;;;;;5081709;28;20024;-86
2023/08/16 00:17:29;;;;;;;6.07;3.72;;;16.60;99.90;;;;;;5062274;28;20032;-86
2023/08/16 00:19:55;;;;;;;14.13;4.10;;;16.60;99.90;;;;;;5075137;28;20055;-86
2023/08/16 00:22:21;;;;;;;6.32;4.38;;;16.50;99.90;;;;;;5060406;28;20021;-86
2023/08/16 00:24:46;;;;;;;11.02;4.18;;;16.40;99.90;;;;;;5054078;28;20021;-86
2023/08/16 00:27:12;;;;;;;9.98;4.20;;;16.30;99.90;;;;;;5056198;28;20027;-86
2023/08/16 00:29:38;;;;;;;6.78;4.10;;;16.30;99.90;;;;;;5077392;28;20102;-86
2023/08/16 00:32:07;;;;;;;11.77;5.78;;;16.20;99.90;;;;;;5083129;28;20064;-86
2023/08/16 00:34:33;;;;;;;5.53;4.32;;;16.20;99.90;;;;;;5082280;28;20036;-86
2023/08/16 00:36:59;;;;;;;7.75;4.10;;;16.10;99.90;;;;;;5080183;28;20552;-86
2023/08/16 00:39:25;;;;;;;6.15;4.47;;;16.10;99.90;;;;;;5067409;28;20029;-86
2023/08/16 00:41:50;;;;;;;10.77;5.07;;;16.00;99.90;;;;;;5074899;28;20035;-85
2023/08/16 00:44:16;;;;;;;9.60;4.43;;;15.90;99.90;;;;;;5086695;28;20447;-86
2023/08/16 00:46:42;;;;;;;9.55;4.00;;;15.90;99.90;;;;;;5082400;28;20028;-86
2023/08/16 00:49:08;;;;;;;5.35;3.97;;;15.90;99.90;;;;;;5079350;28;20029;-86
2023/08/16 00:51:34;;;;;;;7.75;3.83;;;16.00;99.90;;;;;;5067730;28;20125;-86
2023/08/16 00:53:59;;;;;;;4.63;3.85;;;16.00;99.90;;;;;;5064227;28;20028;-86
2023/08/16 00:56:26;;;;;;;7.07;4.15;;;16.00;99.90;;;;;;5061759;28;20069;-86
2023/08/16 00:58:51;;;;;;;6.75;4.38;;;16.00;99.90;;;;;;5081348;28;20054;-86
2023/08/16 01:01:19;;;;;;;6.15;4.60;;;16.00;99.90;;;;;;5080916;28;20024;-85
2023/08/16 01:03:46;;;;;;;7.53;3.95;;;16.00;99.90;;;;;;5066362;28;20032;-85
2023/08/16 01:06:11;;;;;;;8.50;4.15;;;16.10;99.90;;;;;;5063048;28;20101;-85
2023/08/16 01:08:38;;;;;;;6.35;4.65;;;16.00;99.90;;;;;;5065785;28;20028;-85
2023/08/16 01:11:23;;;;;;;5.55;4.22;;;15.90;99.90;;;;;;5059351;28;20078;-86
2023/08/16 01:14:13;;;;;;;8.32;4.15;;;15.80;99.90;;;;;;5085083;28;20029;-86
2023/08/16 01:16:41;;;;;;;5.43;4.30;;;15.80;99.90;;;;;;5086567;28;20024;-86
2023/08/16 01:19:10;;;;;;;4.90;4.20;;;15.80;99.90;;;;;;5062082;28;20024;-86
2023/08/16 01:21:51;;;;;;;6.32;4.00;;;15.80;99.90;;;;;;5067762;28;20044;-86
2023/08/16 01:24:29;;;;;;;7.10;4.25;;;15.70;99.90;;;;;;5066020;28;20418;-86
2023/08/16 01:26:55;;;;;;;8.23;3.50;;;15.70;99.90;;;;;;5064550;28;20044;-86
2023/08/16 01:29:22;;;;;;;4.32;3.38;;;15.80;99.90;;;;;;5061014;28;20081;-86
2023/08/16 01:31:48;;;;;;;4.25;3.58;;;15.80;99.90;;;;;;5059906;28;20418;-86
2023/08/16 01:34:14;;;;;;;11.40;4.90;;;15.90;99.90;;;;;;5063208;28;20081;-87
2023/08/16 01:36:40;;;;;;;5.05;4.35;;;16.00;99.90;;;;;;5061478;28;20025;-86
2023/08/16 01:39:06;;;;;;;6.72;4.72;;;16.00;99.90;;;;;;5081417;28;20028;-86
2023/08/16 01:41:43;;;;;;;5.03;3.95;;;15.90;99.90;;;;;;5062002;28;20464;-86
2023/08/16 01:44:11;;;;;;;4.20;3.30;;;16.00;99.90;;;;;;5081976;28;20587;-87
2023/08/16 01:46:38;;;;;;;5.88;3.63;;;16.00;99.90;;;;;;5064217;28;20039;-86
2023/08/16 01:49:04;;;;;;;4.68;3.25;;;15.80;99.90;;;;;;5061992;28;20029;-86
2023/08/16 01:51:29;;;;;;;4.30;3.13;;;15.80;99.90;;;;;;5066521;28;20104;-86
2023/08/16 01:53:55;;;;;;;5.70;3.67;;;15.70;99.90;;;;;;5063055;28;20021;-86
2023/08/16 01:56:22;;;;;;;3.83;2.88;;;15.70;99.90;;;;;;5060505;28;20020;-86
2023/08/16 01:58:48;;;;;;;4.68;3.88;;;15.60;99.90;;;;;;5064557;28;20021;-86
2023/08/16 02:01:14;;;;;;;7.22;3.70;;;15.60;99.90;;;;;;5061065;28;20386;-86
2023/08/16 02:03:40;;;;;;;8.55;4.50;;;15.60;99.90;;;;;;5083464;28;20137;-86
2023/08/16 02:06:06;;;;;;;4.78;3.70;;;15.50;99.90;;;;;;5062619;28;20060;-86
2023/08/16 02:08:32;;;;;;;4.10;3.60;;;15.50;99.90;;;;;;5060968;28;20028;-86
2023/08/16 02:10:58;;;;;;;7.72;3.67;;;15.40;99.90;;;;;;5064198;28;20328;-86
2023/08/16 02:13:25;;;;;;;5.05;3.47;;;15.50;99.90;;;;;;5077174;28;20021;-86
2023/08/16 02:15:59;;;;;;;4.85;3.58;;;15.50;99.90;;;;;;5082571;28;20020;-86
2023/08/16 02:18:27;;;;;;;4.18;3.42;;;15.50;99.90;;;;;;5062217;28;20063;-86
2023/08/16 02:20:53;;;;;;;8.75;3.63;;;15.50;99.90;;;;;;5079372;28;20123;-86
2023/08/16 02:23:18;;;;;;;5.65;3.75;;;15.50;99.90;;;;;;5060658;28;20079;-86
2023/08/16 02:25:44;;;;;;;6.43;3.63;;;15.50;99.90;;;;;;5081540;28;20035;-86
2023/08/16 02:28:10;;;;;;;4.88;3.20;;;15.40;99.90;;;;;;5078624;28;20032;-86
2023/08/16 02:30:37;;;;;;;7.90;3.72;;;15.40;99.90;;;;;;5067062;28;20066;-86
2023/08/16 02:33:03;;;;;;;4.18;3.08;;;15.50;99.90;;;;;;5062397;28;20012;-86
2023/08/16 02:35:28;;;;;;;7.95;4.18;;;15.40;99.90;;;;;;5060506;28;20046;-86
2023/08/16 02:37:55;;;;;;;5.18;4.10;;;15.40;99.90;;;;;;5064118;28;20529;-86
2023/08/16 02:40:46;;;;;;;6.53;3.60;;;15.40;99.90;;;;;;5061541;28;20054;-86
2023/08/16 02:43:12;;;;;;;6.28;4.75;;;15.40;99.90;;;;;;5081680;28;20053;-85
2023/08/16 02:45:38;;;;;;;5.85;3.75;;;15.30;99.90;;;;;;5081447;28;20380;-86
2023/08/16 02:48:04;;;;;;;6.68;4.88;;;15.30;99.90;;;;;;5074012;28;20036;-86
2023/08/16 02:50:30;;;;;;;5.75;4.72;;;15.30;99.90;;;;;;5083121;28;20036;-86
2023/08/16 02:52:55;;;;;;;5.88;4.28;;;15.20;99.90;;;;;;5075295;28;20395;-86
2023/08/16 02:55:21;;;;;;;5.47;3.97;;;15.20;99.90;;;;;;5061637;28;20070;-86
2023/08/16 02:57:47;;;;;;;7.32;4.97;;;15.20;99.90;;;;;;5076980;28;20029;-85
2023/08/16 03:00:13;;;;;;;7.50;5.20;;;15.20;99.90;;;;;;5064448;28;20111;-86
2023/08/16 03:02:39;;;;;;;7.30;4.30;;;15.30;99.90;;;;;;5061877;28;20119;-86
2023/08/16 03:05:06;;;;;;;9.13;4.30;;;15.30;99.90;;;;;;5066216;28;20813;-86
2023/08/16 03:07:32;;;;;;;5.93;4.15;;;15.30;99.90;;;;;;5062893;28;20028;-86
2023/08/16 03:09:58;;;;;;;7.00;3.97;;;15.30;99.90;;;;;;5078088;28;20021;-86
2023/08/16 03:13:08;;;;;;;4.32;3.60;;;15.30;99.90;;;;;;5081065;28;20066;-86
2023/08/16 03:15:34;;;;;;;5.85;4.03;;;15.30;99.90;;;;;;5059489;28;20030;-86
2023/08/16 03:18:00;;;;;;;4.10;3.50;;;15.30;99.90;;;;;;5066245;28;20016;-86
2023/08/16 03:20:26;;;;;;;7.28;3.92;;;15.30;99.90;;;;;;5078666;28;20024;-86
2023/08/16 03:22:53;;;;;;;6.13;3.55;;;15.30;99.90;;;;;;5060953;28;20024;-86
2023/08/16 03:25:19;;;;;;;8.20;3.83;;;15.30;99.90;;;;;;5063254;28;20090;-86
2023/08/16 03:27:45;;;;;;;4.60;4.05;;;15.30;99.90;;;;;;5062820;28;20036;-86
2023/08/16 03:30:11;;;;;;;14.15;5.07;;;15.30;99.90;;;;;;5072309;28;20387;-86
2023/08/16 03:32:40;;;;;;;4.68;3.60;;;15.30;99.90;;;;;;5062958;28;20044;-86
2023/08/16 03:35:07;;;;;;;8.68;4.05;;;15.30;99.90;;;;;;5054644;28;20086;-86
2023/08/16 03:37:32;;;;;;;7.15;4.30;;;15.40;99.90;;;;;;5066948;28;20093;-86
2023/08/16 03:39:59;;;;;;;6.03;3.42;;;15.40;99.90;;;;;;5058296;28;20040;-86
2023/08/16 03:42:25;;;;;;;5.68;3.85;;;15.50;99.90;;;;;;5057603;28;20021;-86
2023/08/16 03:44:50;;;;;;;6.47;3.75;;;15.40;99.90;;;;;;5073278;28;20033;-86
2023/08/16 03:47:16;;;;;;;7.95;3.85;;;15.40;99.90;;;;;;5063434;28;20502;-86
2023/08/16 03:49:44;;;;;;;5.72;4.18;;;15.40;99.90;;;;;;5055481;28;20395;-86
2023/08/16 03:52:10;;;;;;;11.65;4.80;;;15.50;99.90;;;;;;5065486;28;20033;-86
2023/08/16 03:55:03;;;;;;;4.82;4.25;;;15.70;99.90;;;;;;5061976;28;20116;-86
2023/08/16 03:57:29;;;;;;;5.35;4.35;;;15.90;99.90;;;;;;5076039;28;20024;-86
2023/08/16 03:59:55;;;;;;;9.60;4.47;;;16.00;99.90;;;;;;5064185;28;20077;-86
2023/08/16 04:02:21;;;;;;;6.05;4.20;;;16.10;99.90;;;;;;5060625;28;20035;-86
2023/08/16 04:04:51;;;;;;;9.98;4.30;;;16.20;99.90;;;;;;5066425;28;20024;-86
2023/08/16 04:07:17;;;;;;;6.30;4.20;;;16.30;99.90;;;;;;5061345;28;20016;-86
2023/08/16 04:09:42;;;;;;;4.28;3.80;;;16.40;99.90;;;;;;5059794;28;20028;-86
2023/08/16 04:12:08;;;;;;;5.45;3.92;;;16.40;99.90;;;;;;5062406;28;20036;-86
2023/08/16 04:14:34;;;;;;;6.65;4.00;;;16.40;99.90;;;;;;5077634;28;20030;-86
2023/08/16 04:16:59;;;;;;;4.90;3.60;;;16.50;99.90;;;;;;5052788;28;20028;-87
2023/08/16 04:19:25;;;;;;;4.70;3.95;;;16.50;99.90;;;;;;5068817;28;20507;-87
2023/08/16 04:21:51;;;;;;;7.88;3.67;;;16.50;99.90;;;;;;5073733;28;20040;-88
2023/08/16 04:24:18;;;;;;;5.20;3.63;;;16.50;99.90;;;;;;5081329;28;20020;-88
2023/08/16 04:26:45;;;;;;;4.70;3.78;;;16.50;99.90;;;;;;5061315;28;20091;-87
2023/08/16 04:29:10;;;;;;;4.45;3.30;;;16.40;99.90;;;;;;5078408;28;20036;-88
2023/08/16 04:31:36;;;;;;;4.70;3.35;;;16.50;99.90;;;;;;5076114;28;20055;-88
2023/08/16 04:34:02;;;;;;;5.07;3.28;;;16.50;99.90;;;;;;5064370;28;20115;-87
2023/08/16 04:36:27;;;;;;;6.38;3.22;;;16.50;99.90;;;;;;5060457;28;20021;-88
2023/08/16 04:38:53;;;;;;;3.95;3.35;;;16.70;99.90;;;;;;5066254;28;20099;-87
2023/08/16 04:41:19;;;;;;;5.07;3.60;;;16.80;99.90;;;;;;5061293;28;20062;-87
2023/08/16 04:43:45;;;;;;;4.10;3.20;;;16.90;99.90;;;;;;5077259;28;20507;-88
2023/08/16 04:46:11;;;;;;;4.78;3.00;;;16.90;99.90;;;;;;5062667;28;20028;-87
2023/08/16 04:48:37;;;;;;;4.20;3.00;;;17.00;99.90;;;;;;5062606;28;20490;-87
2023/08/16 04:51:04;;;;;;;5.43;3.00;;;17.30;99.90;;;;;;5056363;28;20024;-87
2023/08/16 04:53:29;;;;;;;10.50;3.20;;;17.40;99.90;;;;;;5080706;28;20028;-87
2023/08/16 04:55:56;;;;;;;3.92;3.50;;;17.60;99.90;;;;;;5058797;28;20471;-87
2023/08/16 04:58:22;;;;;;;7.60;2.90;;;17.70;99.90;;;;;;5065566;28;20032;-87
2023/08/16 05:00:50;;;;;;;4.53;2.88;;;18.00;99.90;;;;;;5061067;28;20115;-87
2023/08/16 05:03:16;;;;;;;3.45;2.78;;;18.20;99.90;;;;;;5059068;28;20084;-87
2023/08/16 05:05:42;;;;;;;5.25;2.92;;;18.30;99.90;;;;;;5081928;28;20124;-87
2023/08/16 05:08:09;;;;;;;4.45;2.70;;;18.50;99.90;;;;;;5068878;28;20502;-87
2023/08/16 05:10:36;;;;;;;4.75;2.97;;;18.60;99.90;;;;;;5072471;28;20115;-87
2023/08/16 05:13:02;;;;;;;4.80;2.80;;;18.70;99.90;;;;;;5057893;28;20056;-86
2023/08/16 05:15:28;;;;;;;4.68;2.58;;;18.80;99.90;;;;;;5055845;28;20547;-87
2023/08/16 05:17:54;;;;;;;5.47;3.78;;;18.90;99.90;;;;;;5060334;28;20112;-88
2023/08/16 05:20:20;;;;;;;6.55;4.53;;;18.90;99.90;;;;;;5058943;28;20030;-87
2023/08/16 05:22:45;;;;;;;3.47;2.75;;;19.00;99.90;;;;;;5077137;28;20035;-87
2023/08/16 05:25:11;;;;;;;5.22;3.05;;;19.10;99.90;;;;;;5071693;28;20032;-87
2023/08/16 05:27:37;;;;;;;4.57;2.75;;;19.20;99.90;;;;;;5057954;28;20036;-87
2023/08/16 05:30:04;;;;;;;6.03;2.80;;;19.30;99.90;;;;;;5080973;28;20031;-87
2023/08/16 05:32:29;;;;;;;4.57;3.10;;;19.50;99.90;;;;;;5073682;28;20384;-88
2023/08/16 05:34:55;;;;;;;4.20;2.20;;;19.60;99.90;;;;;;5069078;28;20027;-88
2023/08/16 05:37:21;;;;;;;8.02;2.53;;;19.80;99.90;;;;;;5076065;28;20036;-88
2023/08/16 05:39:47;;;;;;;3.25;2.40;;;19.90;99.90;;;;;;5061553;28;20475;-87
2023/08/16 05:42:12;;;;;;;6.93;2.88;;;20.00;99.90;;;;;;5077483;28;20056;-88
2023/08/16 05:44:38;;;;;;;4.63;2.70;;;20.10;99.90;;;;;;5058427;28;20700;-87
2023/08/16 05:47:04;;;;;;;3.38;2.47;;;20.20;99.90;;;;;;5052523;28;20105;-88
2023/08/16 05:49:30;;;;;;;4.10;2.70;;;20.20;99.90;;;;;;5077376;28;20109;-88
2023/08/16 05:51:56;;;;;;;5.82;3.05;;;20.20;99.90;;;;;;5077128;28;20035;-88
2023/08/16 05:54:22;;;;;;;4.22;3.10;;;20.40;99.90;;;;;;5054945;28;20029;-87
2023/08/16 05:56:48;;;;;;;5.18;2.70;;;20.60;99.90;;;;;;5070061;28;20463;-87
2023/08/16 05:59:14;;;;;;;11.60;3.47;;;20.90;99.90;;;;;;5077856;28;20024;-88
2023/08/16 06:01:40;;;;;;;4.65;3.17;;;21.00;99.90;;;;;;5060312;28;20053;-88
2023/08/16 06:04:21;;;;;;;4.63;3.33;;;21.10;99.90;;;;;;5074284;28;20024;-88
2023/08/16 06:06:47;;;;;;;4.55;2.80;;;21.20;99.90;;;;;;5064802;28;20040;-88
2023/08/16 06:09:13;;;;;;;4.78;3.35;;;21.40;99.90;;;;;;5059110;28;20111;-88
2023/08/16 06:11:38;;;;;;;4.60;3.03;;;21.60;99.90;;;;;;5075928;28;20040;-88
2023/08/16 06:14:04;;;;;;;10.00;3.30;;;21.70;99.90;;;;;;5074043;28;20516;-88
2023/08/16 06:16:30;;;;;;;5.07;3.00;;;21.90;99.90;;;;;;5062093;28;20032;-88
2023/08/16 06:18:56;;;;;;;4.47;3.33;;;22.00;99.90;;;;;;5074741;28;20040;-87
2023/08/16 06:21:34;;;;;;;5.20;3.75;;;22.20;99.90;;;;;;5059563;28;20074;-89
2023/08/16 06:24:00;;;;;;;4.93;3.65;;;22.00;99.90;;;;;;5055908;28;20028;-88
2023/08/16 06:26:25;;;;;;;5.68;3.55;;;22.00;99.90;;;;;;5076711;28;20074;-89
2023/08/16 06:28:51;;;;;;;6.00;3.85;;;22.10;99.90;;;;;;5075898;28;20043;-88
2023/08/16 06:31:17;;;;;;;10.15;3.70;;;22.30;99.90;;;;;;5061385;28;20013;-89
2023/08/16 06:33:43;;;;;;;6.68;3.22;;;22.30;99.90;;;;;;5059812;28;20039;-88
2023/08/16 06:36:09;;;;;;;7.78;3.20;;;22.40;99.90;;;;;;5061420;28;20078;-88
2023/08/16 06:38:36;;;;;;;10.20;4.85;;;22.50;99.90;;;;;;5054786;28;20032;-88
2023/08/16 06:41:03;;;;;;;4.68;3.03;;;22.40;99.90;;;;;;5073258;28;20123;-88
2023/08/16 06:43:28;;;;;;;5.70;3.20;;;22.30;99.90;;;;;;5073861;28;20028;-88
2023/08/16 06:45:55;;;;;;;4.05;3.33;;;22.30;99.90;;;;;;5077287;28;20066;-88
2023/08/16 06:48:22;;;;;;;3.72;2.95;;;22.10;99.90;;;;;;5077854;28;20032;-88
2023/08/16 06:50:51;;;;;;;6.50;3.47;;;22.10;99.90;;;;;;5056433;28;20075;-88
2023/08/16 06:53:16;;;;;;;4.88;3.35;;;21.90;99.90;;;;;;5053281;28;20115;-87
2023/08/16 06:55:42;;;;;;;6.18;3.60;;;21.80;99.90;;;;;;5065465;28;20440;-88
2023/08/16 06:58:08;;;;;;;5.32;3.85;;;21.80;99.90;;;;;;5081975;28;20501;-88
2023/08/16 07:00:34;;;;;;;6.57;3.72;;;21.70;99.90;;;;;;5056546;28;20028;-88
2023/08/16 07:03:03;;;;;;;4.88;3.58;;;21.70;99.90;;;;;;5056314;28;20032;-88
2023/08/16 07:05:29;;;;;;;10.27;3.70;;;21.70;99.90;;;;;;5074753;28;20037;-88
2023/08/16 07:08:38;;;;;;;5.80;3.88;;;21.70;99.90;;;;;;5059978;28;20039;-88
2023/08/16 07:11:03;;;;;;;9.18;3.95;;;21.70;99.90;;;;;;5057283;28;20033;-88
2023/08/16 07:13:29;;;;;;;5.80;3.53;;;21.90;99.90;;;;;;5052929;28;20029;-87
2023/08/16 07:15:55;;;;;;;4.80;3.40;;;22.00;99.90;;;;;;5085186;28;20025;-88
2023/08/16 07:18:21;;;;;;;4.43;3.22;;;22.20;99.90;;;;;;5061713;28;20038;-87
2023/08/16 07:20:46;;;;;;;9.05;4.00;;;22.10;99.90;;;;;;5077698;28;20032;-87
2023/08/16 07:23:12;;;;;;;8.27;3.67;;;22.00;99.90;;;;;;5057880;28;20051;-87
2023/08/16 07:25:38;;;;;;;8.63;3.92;;;22.10;99.90;;;;;;5072707;28;20024;-87
2023/08/16 07:28:04;;;;;;;5.18;3.20;;;22.30;99.90;;;;;;5071677;28;20025;-87
2023/08/16 07:30:30;;;;;;;7.45;3.50;;;22.60;99.90;;;;;;5073262;28;20032;-87
2023/08/16 07:32:56;;;;;;;7.25;3.83;;;23.00;99.90;;;;;;5058608;28;20040;-87
2023/08/16 07:35:22;;;;;;;5.57;3.42;;;23.10;99.90;;;;;;5072677;28;20047;-88
2023/08/16 07:37:48;;;;;;;9.82;4.15;;;23.30;99.90;;;;;;5058606;28;20058;-87
2023/08/16 07:40:14;;;;;;;9.25;3.38;;;23.40;99.90;;;;;;5071598;28;20024;-87
2023/08/16 07:42:40;;;;;;;5.63;3.17;;;23.50;99.90;;;;;;5078454;28;20028;-87
2023/08/16 07:45:06;;;;;;;6.43;3.90;;;23.50;99.90;;;;;;5073543;28;20480;-87
2023/08/16 07:47:32;;;;;;;6.85;4.18;;;23.40;99.90;;;;;;5071173;28;20036;-87
2023/08/16 07:49:58;;;;;;;5.68;3.75;;;23.10;99.90;;;;;;5069551;28;20054;-87
2023/08/16 07:52:24;;;;;;;6.50;4.25;;;22.90;99.90;;;;;;5071141;28;20112;-87
2023/08/16 07:54:50;;;;;;;16.60;5.00;;;22.60;99.90;;;;;;5061660;28;20028;-86
2023/08/16 07:57:16;;;;;;;9.57;6.43;;;22.60;99.90;;;;;;5060128;28;20017;-86
2023/08/16 07:59:42;;;;;;;7.40;3.80;;;22.70;99.90;;;;;;5066565;28;20031;-87
2023/08/16 08:02:07;;;;;;;6.82;4.35;;;22.90;99.90;;;;;;5059784;28;20029;-87
2023/08/16 08:04:33;;;;;;;9.25;4.68;;;22.60;99.90;;;;;;5050481;28;20387;-87
2023/08/16 08:07:00;;;;;;;7.05;4.15;;;22.70;99.90;;;;;;5060749;28;20040;-88
2023/08/16 08:09:26;;;;;;;7.53;3.80;;;22.50;99.90;;;;;;5078818;28;20029;-87
2023/08/16 08:11:51;;;;;;;8.68;4.38;;;22.40;99.90;;;;;;5072828;28;20028;-87
2023/08/16 08:14:17;;;;;;;5.93;3.95;;;22.40;99.90;;;;;;5059250;28;20028;-86
2023/08/16 08:16:44;;;;;;;7.30;3.97;;;22.50;99.90;;;;;;5065239;28;20032;-87
2023/08/16 08:19:10;;;;;;;11.65;4.13;;;22.70;99.90;;;;;;5060058;28;20020;-86
2023/08/16 08:21:36;;;;;;;7.78;4.05;;;22.80;99.90;;;;;;5079558;28;20032;-87
2023/08/16 08:24:01;;;;;;;5.28;4.07;;;23.20;99.90;;;;;;5080310;28;20094;-87
2023/08/16 08:26:27;;;;;;;7.32;3.85;;;23.40;99.90;;;;;;5073295;28;20032;-87
2023/08/16 08:28:53;;;;;;;7.15;4.00;;;23.40;99.90;;;;;;5063831;28;20407;-86
2023/08/16 08:31:19;;;;;;;5.60;3.80;;;23.60;99.90;;;;;;5083144;28;20093;-87
2023/08/16 08:33:47;;;;;;;7.70;3.70;;;23.80;99.90;;;;;;5079789;28;20124;-87
2023/08/16 08:36:13;;;;;;;5.65;3.10;;;24.30;99.90;;;;;;5077555;28;20051;-87
2023/08/16 08:38:40;;;;;;;5.28;3.45;;;24.30;99.90;;;;;;5063767;28;20044;-87
2023/08/16 08:41:06;;;;;;;4.45;3.35;;;24.50;99.90;;;;;;5059410;28;20032;-87
2023/08/16 08:43:38;;;;;;;5.55;3.38;;;24.90;99.90;;;;;;5062033;28;20025;-86
2023/08/16 08:46:05;;;;;;;8.10;3.40;;;25.30;99.90;;;;;;5076453;28;20039;-87
2023/08/16 08:48:32;;;;;;;7.25;3.25;;;25.90;99.90;;;;;;5076267;28;20029;-87
2023/08/16 08:50:58;;;;;;;4.07;3.00;;;26.50;99.90;;;;;;5062915;28;20052;-87
2023/08/16 08:53:25;;;;;;;6.38;3.28;;;27.50;99.90;;;;;;5065413;28;20483;-87
2023/08/16 08:55:55;;;;;;;6.57;3.13;;;28.90;99.90;;;;;;5080336;28;20174;-87
2023/08/16 08:58:22;;;;;;;4.45;2.75;;;29.90;99.90;;;;;;5088596;28;20149;-86
2023/08/16 09:00:49;;;;;;;4.15;2.92;;;30.20;99.90;;;;;;5068178;28;20376;-87
2023/08/16 09:03:18;;;;;;;5.68;2.50;;;30.00;99.90;;;;;;5055306;28;20071;-87
2023/08/16 09:05:52;;;;;;;3.35;2.58;;;30.20;99.90;;;;;;5075321;28;20028;-88
2023/08/16 09:08:20;;;;;;;4.38;2.33;;;30.90;99.90;;;;;;5076159;28;20032;-87
2023/08/16 09:10:46;;;;;;;3.80;2.55;;;30.10;99.90;;;;;;5057121;28;20118;-86
2023/08/16 09:13:24;;;;;;;8.23;2.90;;;29.50;99.90;;;;;;5056605;28;20032;-87
2023/08/16 09:15:50;;;;;;;7.53;3.17;;;28.70;99.90;;;;;;5068592;28;20028;-87
2023/08/16 09:18:19;;;;;;;5.60;2.75;;;28.00;99.90;;;;;;5075301;28;20506;-87
2023/08/16 09:20:45;;;;;;;3.63;2.47;;;28.40;99.90;;;;;;5058301;28;20032;-87
2023/08/16 09:23:15;;;;;;;5.05;2.20;;;29.30;99.90;;;;;;5075226;28;20032;-87
2023/08/16 09:25:41;;;;;;;7.07;2.93;;;29.90;99.90;;;;;;5075010;28;20097;-87
2023/08/16 09:28:11;;;;;;;4.22;2.33;;;30.20;99.90;;;;;;5074379;28;20549;-87
2023/08/16 09:30:37;;;;;;;5.45;2.97;;;30.60;99.90;;;;;;5071399;28;20036;-88
2023/08/16 09:33:04;;;;;;;4.55;3.13;;;30.50;99.90;;;;;;5053166;28;20048;-86
2023/08/16 09:35:32;;;;;;;3.95;2.35;;;30.50;99.90;;;;;;5058099;28;20032;-87
2023/08/16 09:37:58;;;;;;;3.85;2.55;;;31.90;99.90;;;;;;5074344;28;20037;-87
2023/08/16 09:40:24;;;;;;;5.35;2.95;;;33.10;99.90;;;;;;5058422;28;20020;-88
2023/08/16 09:42:50;;;;;;;4.40;2.78;;;33.80;99.90;;;;;;5057610;28;20074;-87
2023/08/16 09:45:34;;;;;;;4.53;2.90;;;33.60;99.90;;;;;;5056554;28;20025;-88
2023/08/16 09:48:01;;;;;;;6.20;2.90;;;33.00;99.90;;;;;;5074477;28;20028;-87
2023/08/16 09:50:35;;;;;;;4.80;2.75;;;32.80;99.90;;;;;;5073287;28;20017;-88
2023/08/16 09:53:05;;;;;;;4.65;2.60;;;32.00;99.90;;;;;;5056821;28;20067;-88
2023/08/16 09:55:33;;;;;;;6.05;2.60;;;31.20;99.90;;;;;;5057798;28;20028;-87
2023/08/16 09:58:01;;;;;;;5.28;2.70;;;30.90;99.90;;;;;;5073199;28;20024;-87
2023/08/16 10:00:28;;;;;;;4.90;2.70;;;30.80;99.90;;;;;;5056978;28;20028;-88
2023/08/16 10:02:56;;;;;;;4.47;2.72;;;30.20;99.90;;;;;;5056001;28;20028;-87
2023/08/16 10:05:22;;;;;;;4.07;3.05;;;29.40;99.90;;;;;;5050190;28;20037;-87
2023/08/16 10:07:51;;;;;;;7.90;3.25;;;28.50;99.90;;;;;;5056780;28;20031;-87
2023/08/16 10:10:17;;;;;;;6.22;2.95;;;28.20;99.90;;;;;;5053197;28;20738;-87
2023/08/16 10:12:46;;;;;;;4.93;2.83;;;27.50;99.90;;;;;;5056830;28;20020;-87
2023/08/16 10:15:14;;;;;;;5.55;3.10;;;27.60;99.90;;;;;;5053623;28;20034;-87
2023/08/16 10:17:42;;;;;;;5.82;2.70;;;27.30;99.90;;;;;;5064607;28;20032;-88
2023/08/16 10:20:22;;;;;;;9.93;2.83;;;28.00;99.90;;;;;;5056249;28;20414;-87
2023/08/16 10:22:51;;;;;;;9.77;3.83;;;29.20;99.90;;;;;;5048345;28;20082;-87
2023/08/16 10:25:23;;;;;;;14.52;3.08;;;29.80;99.90;;;;;;5077317;28;20071;-88
2023/08/16 10:27:50;;;;;;;8.02;2.78;;;30.00;99.90;;;;;;5077171;28;20036;-87
2023/08/16 10:30:20;;;;;;;3.47;2.72;;;30.20;99.90;;;;;;5074735;28;20431;-87
2023/08/16 10:32:53;;;;;;;3.70;2.63;;;30.90;99.90;;;;;;5062845;28;20491;-87
2023/08/16 10:35:20;;;;;;;4.18;2.58;;;31.60;99.90;;;;;;5062416;28;20711;-87
2023/08/16 10:37:46;;;;;;;11.07;2.60;;;31.40;99.90;;;;;;5076695;28;20033;-88
2023/08/16 10:40:21;;;;;;;4.40;2.35;;;31.30;99.90;;;;;;5065090;28;20021;-88
2023/08/16 10:42:56;;;;;;;6.03;2.50;;;31.60;99.90;;;;;;5078524;28;20476;-87
2023/08/16 10:45:30;;;;;;;3.40;3.10;;;32.30;99.90;;;;;;5084390;28;20040;-88
2023/08/16 10:47:56;;;;;;;4.95;2.80;;;32.70;99.90;;;;;;5079583;28;20119;-88
2023/08/16 10:50:32;;;;;;;3.88;2.80;;;32.60;99.90;;;;;;5077602;28;20127;-88
2023/08/16 10:53:00;;;;;;;6.85;3.00;;;32.50;99.90;;;;;;5063892;28;20115;-88
2023/08/16 10:55:25;;;;;;;4.60;3.47;;;32.20;99.90;;;;;;5079841;28;20468;-87
2023/08/16 10:57:54;;;;;;;9.98;3.33;;;31.40;99.90;;;;;;5061735;28;20033;-87
2023/08/16 11:00:34;;;;;;;7.00;3.20;;;30.60;99.90;;;;;;5076517;28;20031;-87
2023/08/16 11:03:01;;;;;;;5.82;2.55;;;30.60;99.90;;;;;;5076265;28;20047;-87
2023/08/16 11:05:33;;;;;;;3.47;2.83;;;30.80;99.90;;;;;;5066326;28;20020;-88
2023/08/16 11:08:01;;;;;;;4.68;3.10;;;31.00;99.90;;;;;;5061795;28;20063;-87
2023/08/16 11:10:39;;;;;;;5.10;3.10;;;31.20;99.90;;;;;;5075399;28;20379;-88
2023/08/16 11:13:12;;;;;;;3.55;2.63;;;31.40;99.90;;;;;;5065083;28;20046;-88
2023/08/16 11:15:40;;;;;;;3.58;2.53;;;30.60;99.90;;;;;;5058645;28;20029;-87
2023/08/16 11:18:06;;;;;;;5.80;2.95;;;30.50;99.90;;;;;;5078909;28;20031;-88
2023/08/16 11:20:32;;;;;;;4.85;2.80;;;30.60;99.90;;;;;;5060758;28;20029;-88
2023/08/16 11:22:58;;;;;;;8.48;2.75;;;31.10;99.90;;;;;;5081737;28;20083;-88
2023/08/16 11:25:32;;;;;;;9.18;3.25;;;31.30;99.90;;;;;;5078596;28;20025;-88
2023/08/16 11:28:04;;;;;;;3.47;2.35;;;31.40;99.90;;;;;;5065701;28;20028;-87
2023/08/16 11:30:31;;;;;;;6.85;2.53;;;32.10;99.90;;;;;;5063339;28;20043;-88
2023/08/16 11:33:00;;;;;;;5.72;2.65;;;32.60;99.90;;;;;;5077633;28;20028;-88
2023/08/16 11:35:26;;;;;;;4.88;2.90;;;32.70;99.90;;;;;;5065456;28;20060;-88
2023/08/16 11:37:52;;;;;;;6.63;2.95;;;33.20;99.90;;;;;;5061913;28;20031;-89
2023/08/16 11:40:23;;;;;;;4.43;2.60;;;32.80;99.70;;;;;;5084467;28;20024;-88
2023/08/16 11:42:50;;;;;;;5.03;2.40;;;32.70;99.90;;;;;;5080595;28;20028;-88
2023/08/16 11:45:20;;;;;;;4.55;2.35;;;32.20;99.90;;;;;;5061527;28;20035;-89
2023/08/16 11:47:53;;;;;;;8.20;2.67;;;31.70;99.90;;;;;;5064451;28;20405;-88
2023/08/16 11:50:20;;;;;;;7.20;2.88;;;31.80;99.90;;;;;;5064428;28;20383;-88
2023/08/16 11:53:03;;;;;;;3.85;2.90;;;31.90;99.90;;;;;;5073870;28;20030;-87
2023/08/16 11:55:30;;;;;;;8.13;2.90;;;31.60;99.90;;;;;;5060794;28;20122;-87
2023/08/16 11:58:08;;;;;;;7.65;2.80;;;31.50;99.90;;;;;;5059526;28;20074;-87
2023/08/16 12:00:38;;;;;;;5.75;2.50;;;31.10;99.90;;;;;;5057096;28;20025;-88
2023/08/16 12:03:11;;;;;;;8.45;3.25;;;32.10;99.90;;;;;;5080191;28;20036;-90
2023/08/16 12:05:39;;;;;;;5.60;2.83;;;32.90;99.90;;;;;;5058295;28;20032;-88
2023/08/16 12:08:06;;;;;;;4.93;2.97;;;33.00;99.90;;;;;;5082765;28;20055;-88
2023/08/16 12:10:33;;;;;;;4.93;2.53;;;33.60;99.90;;;;;;5076764;28;20039;-88
2023/08/16 12:13:09;;;;;;;3.83;2.53;;;32.70;99.90;;;;;;5061401;28;20188;-88
2023/08/16 12:15:35;;;;;;;7.10;2.83;;;31.70;99.90;;;;;;5075509;28;20040;-88
2023/08/16 12:18:00;;;;;;;3.53;2.50;;;31.50;99.90;;;;;;5078567;28;20451;-88
2023/08/16 12:20:26;;;;;;;3.65;2.58;;;31.10;99.90;;;;;;5059360;28;20460;-88
2023/08/16 12:22:57;;;;;;;8.57;2.70;;;31.30;99.90;;;;;;5063957;28;20025;-88
2023/08/16 12:25:23;;;;;;;7.63;2.80;;;31.20;99.90;;;;;;5060569;28;20021;-87
2023/08/16 12:28:07;;;;;;;2.97;2.53;;;31.50;99.90;;;;;;5069048;28;20047;-88
2023/08/16 12:30:33;;;;;;;5.95;3.60;;;31.50;99.90;;;;;;5065967;28;20110;-89
2023/08/16 12:32:59;;;;;;;9.80;3.33;;;31.30;99.90;;;;;;5064082;28;20029;-87
2023/08/16 12:35:25;;;;;;;5.28;2.97;;;30.80;99.90;;;;;;5085972;28;20545;-88
2023/08/16 12:37:51;;;;;;;5.00;3.35;;;30.90;99.90;;;;;;5083778;28;20379;-88
2023/08/16 12:40:16;;;;;;;10.25;3.45;;;30.80;99.90;;;;;;5080831;28;20016;-88
2023/08/16 12:42:42;;;;;;;6.53;3.05;;;30.90;99.90;;;;;;5083181;28;20060;-88
2023/08/16 12:45:09;;;;;;;6.07;2.90;;;30.90;99.90;;;;;;5081577;28;20024;-88
2023/08/16 12:47:35;;;;;;;4.55;2.97;;;31.00;99.90;;;;;;5069316;28;20039;-88